createdAt,value
2024-03-11T00:00:02.040Z,29.67
2024-03-11T00:02:28.969Z,25.93
2024-03-11T00:04:56.006Z,29.80
2024-03-11T00:07:22.821Z,30.07
2024-03-11T00:09:49.974Z,29.07
2024-03-11T00:12:18.829Z,30.67
2024-03-11T00:14:48.783Z,34.17
2024-03-11T00:17:16.210Z,36.83
2024-03-11T00:19:43.003Z,30.80
2024-03-11T00:22:09.797Z,27.40
2024-03-11T00:24:36.691Z,26.07
2024-03-11T00:27:08.970Z,29.30
2024-03-11T00:29:36.371Z,27.77
2024-03-11T00:32:09.245Z,30.63
2024-03-11T00:34:36.080Z,26.63
2024-03-11T00:37:03.694Z,32.17
2024-03-11T00:39:31.803Z,31.63
2024-03-11T00:41:58.555Z,26.47
2024-03-11T00:44:25.347Z,26.80
2024-03-11T00:46:52.155Z,26.77
2024-03-11T00:49:20.879Z,31.90
2024-03-11T00:51:47.756Z,26.03
2024-03-11T00:54:14.830Z,30.43
2024-03-11T00:56:41.601Z,31.03
2024-03-11T00:59:08.352Z,27.97
2024-03-11T01:01:35.109Z,35.57
2024-03-11T01:04:01.786Z,33.77
2024-03-11T01:06:28.676Z,29.67
2024-03-11T01:08:56.142Z,30.80
2024-03-11T01:11:24.455Z,28.20
2024-03-11T01:13:51.260Z,28.40
2024-03-11T01:16:18.059Z,28.27
2024-03-11T01:18:48.905Z,28.23
2024-03-11T01:21:15.531Z,32.20
2024-03-11T01:23:42.169Z,26.07
2024-03-11T01:26:08.935Z,34.20
2024-03-11T01:28:36.951Z,28.87
2024-03-11T01:31:05.609Z,29.60
2024-03-11T01:33:32.312Z,28.13
2024-03-11T01:36:00.539Z,29.00
2024-03-11T01:38:29.992Z,27.90
2024-03-11T01:40:57.765Z,33.93
2024-03-11T01:43:26.319Z,28.13
2024-03-11T01:45:54.694Z,30.60
2024-03-11T01:48:21.632Z,27.87
2024-03-11T01:50:49.395Z,29.20
2024-03-11T01:53:16.761Z,25.03
2024-03-11T01:55:44.804Z,23.10
2024-03-11T01:58:12.236Z,32.40
2024-03-11T02:00:38.952Z,29.50
2024-03-11T02:03:07.698Z,32.33
2024-03-11T02:05:41.780Z,26.63
2024-03-11T02:08:09.021Z,30.13
2024-03-11T02:10:35.868Z,27.17
2024-03-11T02:13:02.912Z,23.07
2024-03-11T02:15:30.313Z,29.53
2024-03-11T02:17:57.575Z,27.03
2024-03-11T02:20:24.538Z,23.90
2024-03-11T02:22:55.998Z,29.33
2024-03-11T02:25:30.565Z,30.50
2024-03-11T02:27:59.500Z,35.57
2024-03-11T02:30:26.549Z,30.97
2024-03-11T02:32:53.586Z,31.00
2024-03-11T02:35:21.430Z,24.37
2024-03-11T02:37:49.915Z,24.07
2024-03-11T02:40:19.979Z,21.67
2024-03-11T02:42:47.388Z,25.83
2024-03-11T02:45:16.482Z,22.93
2024-03-11T02:47:44.448Z,22.93
2024-03-11T02:50:11.949Z,24.13
2024-03-11T02:52:38.809Z,28.53
2024-03-11T02:55:07.322Z,32.07
2024-03-11T02:57:34.337Z,26.30
2024-03-11T03:00:01.447Z,25.93
2024-03-11T03:02:28.798Z,22.00
2024-03-11T03:04:57.396Z,28.67
2024-03-11T03:07:27.162Z,24.57
2024-03-11T03:09:54.687Z,26.57
2024-03-11T03:12:22.052Z,26.20
2024-03-11T03:14:49.051Z,26.67
2024-03-11T03:17:16.057Z,25.03
2024-03-11T03:19:42.821Z,26.73
2024-03-11T03:22:09.551Z,26.50
2024-03-11T03:24:36.368Z,29.93
2024-03-11T03:27:03.128Z,31.30
2024-03-11T03:29:31.768Z,21.73
2024-03-11T03:31:59.171Z,24.30
2024-03-11T03:34:26.008Z,29.93
2024-03-11T03:36:52.804Z,24.53
2024-03-11T03:39:19.606Z,24.53
2024-03-11T03:41:46.558Z,26.47
2024-03-11T03:44:13.728Z,26.23
2024-03-11T03:46:42.321Z,28.97
2024-03-11T03:49:09.091Z,23.57
2024-03-11T03:51:35.854Z,24.90
2024-03-11T03:54:02.666Z,28.00
2024-03-11T03:56:30.667Z,34.27
2024-03-11T03:58:57.783Z,27.93
2024-03-11T04:01:24.896Z,29.73
2024-03-11T04:03:51.868Z,43.90
2024-03-11T04:06:18.635Z,46.43
2024-03-11T04:08:45.802Z,29.30
2024-03-11T04:11:12.845Z,25.63
2024-03-11T04:13:41.164Z,24.33
2024-03-11T04:16:08.535Z,23.43
2024-03-11T04:18:35.534Z,22.07
2024-03-11T04:21:02.991Z,20.20
2024-03-11T04:23:30.378Z,18.97
2024-03-11T04:25:58.168Z,19.10
2024-03-11T04:28:28.836Z,22.20
2024-03-11T04:30:56.711Z,18.80
2024-03-11T04:33:23.700Z,15.93
2024-03-11T04:35:50.783Z,19.47
2024-03-11T04:38:19.378Z,18.20
2024-03-11T04:40:46.307Z,15.30
2024-03-11T04:43:13.001Z,15.43
2024-03-11T04:45:40.172Z,15.33
2024-03-11T04:48:08.627Z,20.07
2024-03-11T04:50:39.528Z,15.50
2024-03-11T04:53:08.584Z,13.43
2024-03-11T04:55:36.107Z,21.77
2024-03-11T04:58:02.850Z,19.40
2024-03-11T05:00:31.580Z,16.37
2024-03-11T05:03:00.330Z,12.17
2024-03-11T05:05:28.675Z,12.03
2024-03-11T05:07:56.590Z,15.97
2024-03-11T05:10:23.430Z,14.90
2024-03-11T05:12:50.985Z,14.60
2024-03-11T05:15:21.063Z,14.33
2024-03-11T05:17:48.190Z,13.53
2024-03-11T05:20:19.542Z,15.50
2024-03-11T05:22:47.880Z,13.87
2024-03-11T05:25:19.389Z,15.90
2024-03-11T05:27:48.434Z,24.13
2024-03-11T05:30:16.731Z,22.23
2024-03-11T05:32:43.737Z,23.80
2024-03-11T05:35:10.827Z,19.40
2024-03-11T05:37:37.762Z,19.77
2024-03-11T05:40:07.941Z,20.80
2024-03-11T05:42:35.600Z,18.73
2024-03-11T05:45:03.302Z,25.10
2024-03-11T05:47:30.057Z,16.07
2024-03-11T05:49:56.706Z,21.50
2024-03-11T05:52:26.659Z,20.13
2024-03-11T05:54:54.916Z,22.33
2024-03-11T05:57:31.168Z,22.47
2024-03-11T05:59:58.213Z,19.83
2024-03-11T06:02:25.068Z,33.37
2024-03-11T06:04:51.853Z,19.47
2024-03-11T06:07:25.329Z,25.53
2024-03-11T06:09:53.301Z,20.30
2024-03-11T06:12:21.648Z,21.50
2024-03-11T06:14:49.721Z,18.20
2024-03-11T06:17:17.808Z,27.77
2024-03-11T06:19:46.043Z,15.27
2024-03-11T06:22:13.604Z,22.27
2024-03-11T06:24:40.449Z,17.17
2024-03-11T06:27:07.434Z,18.30
2024-03-11T06:29:35.260Z,17.00
2024-03-11T06:32:07.068Z,21.70
2024-03-11T06:34:36.087Z,33.83
2024-03-11T06:37:03.087Z,19.23
2024-03-11T06:39:31.001Z,23.40
2024-03-11T06:41:58.514Z,25.50
2024-03-11T06:44:33.699Z,21.67
2024-03-11T06:47:09.672Z,19.67
2024-03-11T06:49:37.655Z,21.97
2024-03-11T06:52:04.678Z,20.63
2024-03-11T06:54:31.647Z,20.90
2024-03-11T06:56:58.303Z,19.23
2024-03-11T06:59:27.429Z,31.87
2024-03-11T07:01:54.342Z,31.87
2024-03-11T07:04:23.426Z,23.20
2024-03-11T07:06:50.066Z,31.00
2024-03-11T07:09:16.919Z,22.17
2024-03-11T07:11:44.412Z,24.97
2024-03-11T07:14:15.708Z,17.10
2024-03-11T07:16:44.601Z,15.43
2024-03-11T07:19:12.062Z,15.27
2024-03-11T07:21:40.451Z,14.53
2024-03-11T07:24:07.782Z,13.33
2024-03-11T07:26:34.576Z,11.73
2024-03-11T07:29:01.205Z,17.63
2024-03-11T07:31:27.874Z,16.40
2024-03-11T07:33:55.667Z,12.20
2024-03-11T07:36:23.273Z,15.43
2024-03-11T07:38:50.364Z,13.33
2024-03-11T07:41:17.356Z,13.63
2024-03-11T07:43:44.569Z,21.10
2024-03-11T07:46:12.831Z,15.57
2024-03-11T07:48:40.756Z,16.67
2024-03-11T07:51:09.293Z,20.70
2024-03-11T07:53:36.591Z,13.93
2024-03-11T07:56:05.770Z,14.83
2024-03-11T07:58:36.137Z,16.53
2024-03-11T08:01:03.717Z,19.07
2024-03-11T08:03:31.089Z,17.63
2024-03-11T08:06:00.054Z,15.33
2024-03-11T08:08:27.576Z,12.20
2024-03-11T08:10:55.718Z,20.60
2024-03-11T08:13:22.888Z,11.47
2024-03-11T08:15:50.524Z,16.97
2024-03-11T08:18:17.922Z,16.50
2024-03-11T08:20:45.118Z,15.60
2024-03-11T08:23:11.969Z,14.13
2024-03-11T08:25:39.051Z,14.13
2024-03-11T08:28:06.236Z,10.17
2024-03-11T08:30:32.980Z,16.13
2024-03-11T08:33:01.287Z,19.23
2024-03-11T08:35:28.471Z,13.77
2024-03-11T08:37:55.168Z,15.43
2024-03-11T08:40:24.044Z,16.17
2024-03-11T08:42:51.934Z,17.77
2024-03-11T08:45:25.296Z,16.17
2024-03-11T08:47:53.216Z,21.93
2024-03-11T08:50:23.582Z,22.60
2024-03-11T08:52:51.498Z,18.90
2024-03-11T08:55:18.979Z,19.10
2024-03-11T08:57:47.034Z,18.63
2024-03-11T09:00:16.929Z,13.87
2024-03-11T09:02:47.597Z,18.00
2024-03-11T09:05:19.060Z,14.47
2024-03-11T09:07:47.667Z,14.23
2024-03-11T09:10:17.837Z,32.17
2024-03-11T09:12:48.454Z,17.00
2024-03-11T09:15:20.123Z,16.90
2024-03-11T09:17:52.818Z,16.67
2024-03-11T09:20:22.452Z,12.03
2024-03-11T09:22:51.209Z,13.00
2024-03-11T09:25:26.591Z,14.23
2024-03-11T09:27:55.019Z,11.47
2024-03-11T09:30:21.920Z,11.93
2024-03-11T09:32:51.115Z,15.23
2024-03-11T09:35:18.966Z,9.27
2024-03-11T09:37:46.337Z,18.13
2024-03-11T09:40:18.305Z,11.70
2024-03-11T09:42:49.452Z,15.10
2024-03-11T09:45:20.438Z,13.70
2024-03-11T09:47:58.234Z,9.60
2024-03-11T09:50:38.938Z,9.37
2024-03-11T09:53:20.583Z,13.70
2024-03-11T09:55:47.802Z,11.27
2024-03-11T09:58:17.737Z,11.27
2024-03-11T10:00:53.117Z,12.90
2024-03-11T10:03:23.449Z,17.40
2024-03-11T10:06:04.895Z,11.83
2024-03-11T10:08:37.927Z,12.57
2024-03-11T10:11:26.353Z,16.97
2024-03-11T10:13:54.259Z,14.03
2024-03-11T10:16:28.953Z,21.10
2024-03-11T10:19:23.359Z,11.93
2024-03-11T10:22:02.817Z,11.73
2024-03-11T10:24:31.853Z,12.70
2024-03-11T10:26:59.334Z,15.40
2024-03-11T10:29:35.061Z,15.40
2024-03-11T10:32:01.861Z,12.53
2024-03-11T10:34:30.414Z,8.93
2024-03-11T10:37:01.682Z,20.30
2024-03-11T10:39:38.952Z,13.23
2024-03-11T10:42:10.527Z,16.23
2024-03-11T10:44:41.590Z,13.50
2024-03-11T10:47:23.394Z,16.57
2024-03-11T10:49:52.636Z,14.33
2024-03-11T10:52:27.009Z,12.43
2024-03-11T10:55:11.463Z,10.70
2024-03-11T10:57:46.827Z,12.80
2024-03-11T11:00:21.756Z,11.00
2024-03-11T11:02:56.876Z,11.40
2024-03-11T11:05:34.821Z,12.03
2024-03-11T11:08:06.157Z,11.27
2024-03-11T11:10:37.845Z,12.83
2024-03-11T11:13:07.003Z,11.73
2024-03-11T11:15:38.154Z,13.03
2024-03-11T11:18:08.928Z,13.30
2024-03-11T11:20:44.982Z,20.30
2024-03-11T11:23:12.357Z,11.17
2024-03-11T11:25:43.730Z,9.77
2024-03-11T11:28:14.924Z,10.97
2024-03-11T11:30:43.636Z,16.87
2024-03-11T11:33:14.229Z,14.50
2024-03-11T11:35:45.306Z,10.73
2024-03-11T11:38:28.849Z,8.80
2024-03-11T11:40:55.654Z,11.57
2024-03-11T11:43:22.699Z,13.23
2024-03-11T11:45:55.087Z,13.93
2024-03-11T11:48:27.226Z,14.70
2024-03-11T11:51:02.533Z,11.77
2024-03-11T11:53:32.126Z,10.53
2024-03-11T11:55:59.733Z,10.73
2024-03-11T11:58:27.318Z,10.53
2024-03-11T12:01:05.924Z,10.30
2024-03-11T12:03:39.106Z,10.60
2024-03-11T12:06:21.161Z,13.17
2024-03-11T12:08:49.381Z,11.37
2024-03-11T12:11:19.370Z,9.67
2024-03-11T12:13:47.930Z,11.10
2024-03-11T12:16:21.911Z,13.10
2024-03-11T12:19:03.021Z,11.23
2024-03-11T12:21:30.293Z,12.93
2024-03-11T12:23:57.700Z,16.23
2024-03-11T12:26:32.004Z,12.23
2024-03-11T12:29:08.105Z,13.97
2024-03-11T12:31:38.828Z,11.73
2024-03-11T12:34:10.313Z,10.43
2024-03-11T12:36:42.712Z,13.73
2024-03-11T12:39:28.956Z,12.73
2024-03-11T12:41:58.581Z,14.57
2024-03-11T12:44:26.598Z,11.83
2024-03-11T12:46:55.048Z,14.00
2024-03-11T12:49:23.640Z,14.77
2024-03-11T12:52:11.293Z,15.00
2024-03-11T12:54:40.789Z,15.40
2024-03-11T12:57:18.546Z,11.90
2024-03-11T12:59:59.213Z,23.90
2024-03-11T13:02:25.855Z,14.97
2024-03-11T13:04:54.715Z,14.03
2024-03-11T13:07:24.811Z,17.93
2024-03-11T13:09:55.790Z,10.67
2024-03-11T13:12:22.711Z,9.70
2024-03-11T13:14:52.892Z,10.83
2024-03-11T13:17:20.814Z,10.93
2024-03-11T13:19:48.813Z,17.53
2024-03-11T13:22:19.050Z,21.70
2024-03-11T13:24:47.512Z,34.63
2024-03-11T13:27:15.091Z,18.67
2024-03-11T13:29:42.736Z,52.47
2024-03-11T13:32:09.773Z,16.87
2024-03-11T13:34:36.841Z,9.67
2024-03-11T13:37:05.374Z,15.37
2024-03-11T13:39:38.308Z,14.73
2024-03-11T13:42:15.040Z,12.23
2024-03-11T13:44:42.743Z,14.93
2024-03-11T13:47:10.522Z,18.47
2024-03-11T13:49:41.289Z,13.60
2024-03-11T13:52:10.164Z,18.87
2024-03-11T13:54:39.204Z,15.43
2024-03-11T13:57:09.479Z,13.93
2024-03-11T13:59:36.301Z,17.43
2024-03-11T14:02:03.929Z,19.23
2024-03-11T14:04:30.745Z,23.77
2024-03-11T14:06:57.483Z,19.57
2024-03-11T14:09:26.731Z,9.70
2024-03-11T14:11:54.024Z,10.67
2024-03-11T14:14:20.871Z,16.90
2024-03-11T14:16:48.158Z,14.53
2024-03-11T14:19:17.603Z,19.20
2024-03-11T14:21:45.755Z,12.80
2024-03-11T14:24:15.061Z,18.17
2024-03-11T14:26:42.927Z,15.60
2024-03-11T14:29:16.466Z,15.73
2024-03-11T14:31:47.079Z,16.43
2024-03-11T14:34:15.086Z,16.17
2024-03-11T14:36:45.152Z,18.43
2024-03-11T14:39:18.903Z,14.07
2024-03-11T14:41:47.899Z,14.50
2024-03-11T14:44:15.455Z,11.17
2024-03-11T14:46:48.951Z,10.47
2024-03-11T14:49:23.907Z,8.83
2024-03-11T14:51:54.337Z,8.87
2024-03-11T14:54:28.522Z,15.30
2024-03-11T14:56:56.827Z,17.07
2024-03-11T14:59:24.687Z,8.03
2024-03-11T15:01:55.395Z,18.30
2024-03-11T15:04:23.119Z,11.33
2024-03-11T15:06:49.851Z,13.60
2024-03-11T15:09:19.815Z,21.00
2024-03-11T15:11:49.929Z,12.47
2024-03-11T15:14:17.038Z,20.13
2024-03-11T15:16:46.995Z,22.67
2024-03-11T15:19:13.820Z,21.90
2024-03-11T15:21:40.884Z,24.67
2024-03-11T15:24:10.004Z,17.87
2024-03-11T15:26:39.492Z,14.00
2024-03-11T15:29:10.965Z,16.70
2024-03-11T15:31:37.858Z,15.00
2024-03-11T15:34:04.952Z,16.70
2024-03-11T15:36:36.869Z,12.17
2024-03-11T15:39:04.978Z,22.77
2024-03-11T15:41:31.771Z,28.67
2024-03-11T15:43:58.463Z,19.83
2024-03-11T15:46:29.797Z,14.60
2024-03-11T15:48:59.566Z,13.93
2024-03-11T15:51:27.049Z,16.37
2024-03-11T15:53:54.907Z,16.27
2024-03-11T15:56:22.504Z,17.17
2024-03-11T15:58:51.221Z,22.37
2024-03-11T16:01:23.696Z,16.33
2024-03-11T16:03:52.699Z,12.43
2024-03-11T16:06:20.375Z,18.27
2024-03-11T16:08:47.433Z,14.13
2024-03-11T16:11:14.963Z,19.20
2024-03-11T16:13:41.807Z,19.37
2024-03-11T16:16:09.875Z,23.07
2024-03-11T16:18:37.156Z,23.07
2024-03-11T16:21:04.349Z,22.23
2024-03-11T16:23:32.858Z,18.80
2024-03-11T16:26:02.355Z,16.00
2024-03-11T16:28:29.712Z,16.37
2024-03-11T16:30:56.317Z,12.83
2024-03-11T16:33:25.818Z,13.77
2024-03-11T16:35:52.501Z,14.10
2024-03-11T16:38:19.653Z,16.03
2024-03-11T16:40:47.038Z,14.00
2024-03-11T16:43:17.340Z,18.30
2024-03-11T16:45:49.351Z,38.80
2024-03-11T16:48:17.994Z,35.70
2024-03-11T16:50:49.509Z,68.10
2024-03-11T16:53:22.290Z,37.67
2024-03-11T16:55:52.047Z,39.87
2024-03-11T16:58:18.900Z,36.03
2024-03-11T17:00:50.065Z,25.90
2024-03-11T17:03:17.847Z,22.27
2024-03-11T17:05:45.608Z,95.27
2024-03-11T17:08:16.143Z,45.00
2024-03-11T17:10:46.409Z,26.10
2024-03-11T17:13:16.108Z,23.87
2024-03-11T17:15:43.747Z,28.43
2024-03-11T17:18:13.351Z,25.60
2024-03-11T17:20:46.096Z,18.33
2024-03-11T17:23:17.508Z,27.87
2024-03-11T17:25:46.235Z,18.77
2024-03-11T17:28:17.380Z,21.17
2024-03-11T17:30:47.335Z,21.60
2024-03-11T17:33:19.384Z,25.60
2024-03-11T17:35:50.612Z,23.10
2024-03-11T17:38:20.254Z,23.50
2024-03-11T17:40:50.868Z,26.07
2024-03-11T17:43:20.152Z,39.73
2024-03-11T17:45:48.539Z,56.47
2024-03-11T17:48:17.584Z,36.30
2024-03-11T17:50:45.050Z,73.70
2024-03-11T17:53:13.438Z,43.30
2024-03-11T17:55:41.944Z,28.20
2024-03-11T17:58:12.101Z,26.57
2024-03-11T18:00:41.260Z,24.03
2024-03-11T18:03:10.858Z,23.33
2024-03-11T18:05:38.245Z,25.00
2024-03-11T18:08:08.110Z,30.20
2024-03-11T18:10:37.913Z,30.27
2024-03-11T18:13:12.480Z,27.13
2024-03-11T18:15:42.960Z,29.37
2024-03-11T18:18:14.585Z,32.07
2024-03-11T18:20:42.427Z,35.60
2024-03-11T18:23:14.839Z,26.43
2024-03-11T18:25:43.305Z,24.63
2024-03-11T18:28:10.196Z,22.73
2024-03-11T18:30:37.382Z,28.60
2024-03-11T18:33:06.695Z,30.40
2024-03-11T18:35:36.928Z,29.37
2024-03-11T18:38:07.850Z,23.77
2024-03-11T18:40:35.745Z,40.60
2024-03-11T18:43:05.806Z,26.23
2024-03-11T18:45:33.945Z,22.77
2024-03-11T18:48:02.112Z,28.97
2024-03-11T18:50:29.572Z,23.07
2024-03-11T18:53:00.674Z,22.87
2024-03-11T18:55:31.250Z,23.40
2024-03-11T18:58:00.108Z,18.90
2024-03-11T19:00:28.270Z,19.40
2024-03-11T19:03:01.192Z,23.43
2024-03-11T19:05:29.073Z,26.13
2024-03-11T19:07:56.881Z,22.97
2024-03-11T19:10:26.956Z,20.87
2024-03-11T19:12:54.935Z,25.73
2024-03-11T19:15:25.567Z,25.83
2024-03-11T19:17:52.851Z,20.33
2024-03-11T19:20:24.405Z,29.67
2024-03-11T19:22:58.971Z,31.90
2024-03-11T19:25:29.464Z,31.33
2024-03-11T19:27:59.064Z,25.30
2024-03-11T19:30:29.524Z,32.77
2024-03-11T19:32:58.142Z,31.13
2024-03-11T19:35:25.044Z,30.50
2024-03-11T19:38:15.243Z,32.73
2024-03-11T19:40:45.119Z,23.23
2024-03-11T19:43:30.555Z,30.03
2024-03-11T19:46:27.678Z,28.77
2024-03-11T19:49:31.592Z,33.80
2024-03-11T19:52:02.195Z,24.43
2024-03-11T19:55:03.069Z,27.20
2024-03-11T19:57:54.475Z,23.47
2024-03-11T20:01:13.063Z,27.37
2024-03-11T20:03:54.466Z,26.67
2024-03-11T20:06:45.804Z,21.77
2024-03-11T20:09:49.936Z,31.30
2024-03-11T20:12:41.357Z,24.70
2024-03-11T20:15:29.458Z,31.67
2024-03-11T20:18:22.509Z,31.17
2024-03-11T20:21:27.148Z,25.47
2024-03-11T20:24:07.701Z,24.20
2024-03-11T20:26:43.501Z,26.70
2024-03-11T20:29:26.076Z,24.07
2024-03-11T20:32:00.163Z,22.97
2024-03-11T20:34:26.724Z,28.53
2024-03-11T20:36:53.476Z,23.80
2024-03-11T20:39:20.207Z,21.47
2024-03-11T20:41:47.196Z,26.53
2024-03-11T20:44:13.820Z,26.47
2024-03-11T20:46:40.549Z,28.27
2024-03-11T20:49:09.319Z,27.40
2024-03-11T20:51:40.714Z,56.80
2024-03-11T20:54:07.832Z,28.30
2024-03-11T20:56:34.400Z,58.80
2024-03-11T20:59:01.084Z,48.17
2024-03-11T21:01:29.670Z,28.77
2024-03-11T21:03:57.620Z,40.00
2024-03-11T21:06:24.859Z,25.57
2024-03-11T21:08:53.749Z,22.73
2024-03-11T21:11:21.583Z,25.37
2024-03-11T21:13:48.311Z,18.90
2024-03-11T21:16:19.490Z,21.77
2024-03-11T21:18:48.349Z,19.73
2024-03-11T21:21:23.930Z,22.80
2024-03-11T21:24:19.633Z,26.17
2024-03-11T21:27:11.929Z,16.17
2024-03-11T21:29:38.760Z,20.87
2024-03-11T21:32:05.658Z,16.03
2024-03-11T21:34:32.275Z,23.40
2024-03-11T21:36:58.967Z,24.13
2024-03-11T21:39:28.144Z,23.13
2024-03-11T21:41:54.831Z,24.83
2024-03-11T21:44:21.886Z,12.33
2024-03-11T21:46:49.106Z,16.43
2024-03-11T21:49:15.732Z,20.10
2024-03-11T21:51:42.465Z,17.57
2024-03-11T21:54:10.260Z,16.80
2024-03-11T21:56:36.896Z,20.33
2024-03-11T21:59:04.246Z,19.37
2024-03-11T22:01:30.872Z,13.23
2024-03-11T22:03:57.571Z,15.13
2024-03-11T22:06:24.373Z,15.93
2024-03-11T22:08:53.763Z,16.47
2024-03-11T22:11:20.457Z,16.77
2024-03-11T22:13:47.065Z,12.73
2024-03-11T22:16:13.932Z,18.07
2024-03-11T22:18:40.666Z,15.77
2024-03-11T22:21:07.456Z,12.93
2024-03-11T22:23:34.585Z,24.53
2024-03-11T22:26:01.322Z,15.03
2024-03-11T22:28:27.935Z,13.13
2024-03-11T22:30:54.518Z,16.37
2024-03-11T22:33:21.280Z,12.50
2024-03-11T22:35:48.008Z,11.87
2024-03-11T22:38:14.595Z,16.83
2024-03-11T22:40:41.313Z,15.87
2024-03-11T22:43:07.924Z,11.43
2024-03-11T22:45:34.653Z,14.13
2024-03-11T22:48:02.495Z,12.20
2024-03-11T22:50:29.222Z,15.57
2024-03-11T22:52:55.881Z,20.00
2024-03-11T22:55:22.479Z,15.07
2024-03-11T22:57:49.102Z,13.63
2024-03-11T23:00:34.992Z,12.23
2024-03-11T23:03:01.768Z,13.90
2024-03-11T23:05:28.416Z,13.60
2024-03-11T23:07:54.986Z,12.33
2024-03-11T23:10:27.807Z,16.13
2024-03-11T23:12:55.828Z,13.80
2024-03-11T23:15:23.845Z,16.30
2024-03-11T23:17:51.763Z,13.63
2024-03-11T23:20:19.347Z,8.37
2024-03-11T23:22:46.776Z,8.43
2024-03-11T23:25:13.775Z,3.40
2024-03-11T23:27:40.442Z,9.10
2024-03-11T23:30:14.445Z,2.20
2024-03-11T23:32:44.004Z,1.40
2024-03-11T23:35:10.658Z,1.43
2024-03-11T23:37:38.314Z,4.90
2024-03-11T23:40:20.523Z,1.20
2024-03-11T23:42:51.458Z,5.50
2024-03-11T23:45:18.594Z,1.10
2024-03-11T23:47:46.291Z,3.07
2024-03-11T23:50:13.849Z,0.50
2024-03-11T23:52:43.518Z,1.67
2024-03-11T23:55:14.772Z,2.13
2024-03-11T23:57:41.588Z,2.73
